PWSweather.com
Personal Weather Stations
Station Observations
LOBIOS
Galicia, LobiosES

GaliciaLobiosES

Lat: 41.895, Lon: -8.091667

Elevation: 1597

Station Type: Automática/Davis Vantage Pro2 Plus

Latest ConditionsUpdated 9:40:01 PM GMT+01:01 Wednesday, Apr 24, 2019
Currently Today's Max Today's Min Today's Average
Temperature 41.6°F5.3°C 52.7°F11.5°C 40.0°F4.4°C 44.6°F7.0°C
Dew Point 39.8°F4.3°C 49.3°F9.6°C 38.4°F3.6°C 42.2°F5.7°C
Winds 12.7 mph SW20.4 kmh SW 32.2 mph -51.8 kmh - - 13.3 mph 21.4 kmh
Wind Gusts 20.7 mph33.3 kmh 40.3 mph64.9 kmh - -
Humidity 93% 95% 77% 91%
Pressure 29.63 in1003.4 mb 29.63 in1003.4 mb 29.41 in995.9 mb -
Precipitation - 1.95 in49.5 mm - -
Hour Temp Dew Point Humidity Winds Wind Gusts Pressure Precip Precip Rate Daily Precip Total
09:40 PM 41.6°F5.3°C 39.8°F4.3°C 93% 12.7 mph SW20.4 kmh SW 20.7 mph33.3 kmh 29.63 in1003.4 mb - 0.06 in1.5 mm 1.95 in49.5 mm
09:30 PM 42.0°F5.6°C 40.1°F4.5°C 93% 12.7 mph SW20.4 kmh SW 19.6 mph31.5 kmh 29.63 in1003.4 mb - 0.06 in1.5 mm 1.89 in48.0 mm
09:20 PM 42.0°F5.6°C 39.8°F4.3°C 92% 13.8 mph SW22.2 kmh SW 19.6 mph31.5 kmh 29.62 in1003.0 mb - 0.13 in3.3 mm 1.84 in46.7 mm
09:10 PM 42.4°F5.8°C 40.5°F4.7°C 93% 8.1 mph SW13.0 kmh SW 10.4 mph16.7 kmh 29.62 in1003.0 mb - 0.05 in1.3 mm 1.72 in43.7 mm
09:00 PM 42.4°F5.8°C 40.2°F4.6°C 92% 10.4 mph SW16.7 kmh SW 11.5 mph18.5 kmh 29.61 in1002.7 mb - 0.05 in1.3 mm 1.68 in42.7 mm
08:50 PM 42.7°F5.9°C 40.5°F4.7°C 92% 13.8 mph SW22.2 kmh SW 18.4 mph29.6 kmh 29.61 in1002.7 mb - 0.12 in3.0 mm 1.65 in41.9 mm
08:40 PM 43.0°F6.1°C 40.8°F4.9°C 92% 11.5 mph WSW18.5 kmh WSW 19.6 mph31.5 kmh 29.62 in1003.0 mb - 0.04 in1.0 mm 1.54 in39.1 mm
08:30 PM 43.0°F6.1°C 40.8°F4.9°C 92% 13.8 mph SW22.2 kmh SW 16.1 mph25.9 kmh 29.61 in1002.7 mb - 0.05 in1.3 mm 1.50 in38.1 mm
08:20 PM 42.9°F6.1°C 40.7°F4.8°C 92% 8.1 mph SW13.0 kmh SW 11.5 mph18.5 kmh 29.60 in1002.4 mb - 0.02 in0.5 mm 1.46 in37.1 mm
08:10 PM 42.9°F6.1°C 40.7°F4.8°C 92% 11.5 mph SW18.5 kmh SW 13.8 mph22.2 kmh 29.60 in1002.4 mb - 0.03 in0.8 mm 1.44 in36.6 mm
08:00 PM 43.2°F6.2°C 41.0°F5.0°C 92% 17.3 mph SW27.8 kmh SW 19.6 mph31.5 kmh 29.60 in1002.4 mb - 0.03 in0.8 mm 1.41 in35.8 mm
07:50 PM 44.3°F6.8°C 42.1°F5.6°C 92% 18.4 mph SW29.6 kmh SW 28.8 mph46.3 kmh 29.59 in1002.0 mb - 0.03 in0.8 mm 1.38 in35.1 mm
07:40 PM 45.0°F7.2°C 42.8°F6.0°C 92% 17.3 mph SW27.8 kmh SW 21.9 mph35.2 kmh 29.57 in1001.4 mb - 0.01 in0.3 mm 1.35 in34.3 mm
07:30 PM 45.2°F7.3°C 43.0°F6.1°C 92% 15.0 mph SW24.1 kmh SW 20.7 mph33.3 kmh 29.57 in1001.4 mb - 0.01 in0.3 mm 1.34 in34.0 mm
07:20 PM 45.2°F7.3°C 43.0°F6.1°C 92% 6.9 mph SW11.1 kmh SW 11.5 mph18.5 kmh 29.57 in1001.4 mb - 0.00 in0.0 mm 1.33 in33.8 mm
07:10 PM 45.1°F7.3°C 42.9°F6.1°C 92% 9.2 mph SW14.8 kmh SW 12.7 mph20.4 kmh 29.57 in1001.4 mb - 0.00 in0.0 mm 1.33 in33.8 mm
07:00 PM 45.1°F7.3°C 42.9°F6.1°C 92% 13.8 mph SW22.2 kmh SW 16.1 mph25.9 kmh 29.57 in1001.4 mb - 0.00 in0.0 mm 1.33 in33.8 mm
06:50 PM 45.2°F7.3°C 42.7°F5.9°C 91% 15.0 mph SW24.1 kmh SW 21.9 mph35.2 kmh 29.57 in1001.4 mb - 0.02 in0.5 mm 1.33 in33.8 mm
06:40 PM 45.4°F7.4°C 42.9°F6.1°C 91% 17.3 mph SW27.8 kmh SW 19.6 mph31.5 kmh 29.57 in1001.4 mb - 0.04 in1.0 mm 1.32 in33.5 mm
06:30 PM 45.8°F7.7°C 43.0°F6.1°C 90% 18.4 mph SW29.6 kmh SW 25.3 mph40.7 kmh 29.57 in1001.4 mb - 0.10 in2.5 mm 1.28 in32.5 mm
06:20 PM 46.3°F7.9°C 43.2°F6.2°C 89% 19.6 mph SW31.5 kmh SW 21.9 mph35.2 kmh 29.56 in1001.0 mb - 0.09 in2.3 mm 1.17 in29.7 mm
06:10 PM 46.8°F8.2°C 43.4°F6.3°C 88% 21.9 mph SW35.2 kmh SW 26.5 mph42.6 kmh 29.54 in1000.3 mb - 0.07 in1.8 mm 1.09 in27.7 mm
06:00 PM 47.6°F8.7°C 44.2°F6.8°C 88% 23.0 mph SW37.0 kmh SW 27.6 mph44.4 kmh 29.53 in1000.0 mb - 0.04 in1.0 mm 1.03 in26.2 mm
05:50 PM 48.0°F8.9°C 44.3°F6.8°C 87% 19.6 mph SW31.5 kmh SW 26.5 mph42.6 kmh 29.52 in999.7 mb - 0.02 in0.5 mm 0.99 in25.1 mm
05:40 PM 48.3°F9.1°C 44.7°F7.1°C 87% 21.9 mph SW35.2 kmh SW 26.5 mph42.6 kmh 29.52 in999.7 mb - 0.00 in0.0 mm 0.98 in24.9 mm
05:30 PM 48.6°F9.2°C 45.2°F7.3°C 88% 19.6 mph SW31.5 kmh SW 23.0 mph37.0 kmh 29.52 in999.7 mb - 0.00 in0.0 mm 0.98 in24.9 mm
05:20 PM 48.5°F9.2°C 45.4°F7.4°C 89% 25.3 mph SW40.7 kmh SW 27.6 mph44.4 kmh 29.52 in999.7 mb - 0.00 in0.0 mm 0.98 in24.9 mm
05:10 PM 48.2°F9.0°C 45.4°F7.4°C 90% 24.2 mph SW38.9 kmh SW 34.5 mph55.5 kmh 29.52 in999.7 mb - 0.00 in0.0 mm 0.98 in24.9 mm
05:00 PM 47.7°F8.7°C 45.2°F7.3°C 91% 20.7 mph SW33.3 kmh SW 28.8 mph46.3 kmh 29.51 in999.3 mb - 0.00 in0.0 mm 0.98 in24.9 mm
04:50 PM 47.4°F8.6°C 44.9°F7.2°C 91% 21.9 mph SW35.2 kmh SW 27.6 mph44.4 kmh 29.50 in999.0 mb - 0.02 in0.5 mm 0.98 in24.9 mm
04:40 PM 47.4°F8.6°C 44.6°F7.0°C 90% 32.2 mph SW51.8 kmh SW 38.0 mph61.2 kmh 29.50 in999.0 mb - 0.06 in1.5 mm 0.97 in24.6 mm
04:30 PM 48.2°F9.0°C 45.4°F7.4°C 90% 15.0 mph SW24.1 kmh SW 20.7 mph33.3 kmh 29.51 in999.3 mb - 0.03 in0.8 mm 0.91 in23.1 mm
04:20 PM 48.9°F9.4°C 46.4°F8.0°C 91% 21.9 mph SW35.2 kmh SW 26.5 mph42.6 kmh 29.50 in999.0 mb - 0.00 in0.0 mm 0.88 in22.4 mm
04:00 PM 49.0°F9.4°C 46.8°F8.2°C 92% 21.9 mph SW35.2 kmh SW 26.5 mph42.6 kmh 29.51 in999.3 mb - 0.00 in0.0 mm 0.88 in22.4 mm
03:50 PM 46.3°F7.9°C 44.1°F6.7°C 92% 18.4 mph SSW29.6 kmh SSW 19.6 mph31.5 kmh 29.52 in999.7 mb - 0.01 in0.3 mm 0.88 in22.4 mm
03:40 PM 46.3°F7.9°C 43.8°F6.6°C 91% 26.5 mph SW42.6 kmh SW 34.5 mph55.5 kmh 29.51 in999.3 mb - 0.02 in0.5 mm 0.87 in22.1 mm
03:30 PM 46.1°F7.8°C 43.9°F6.6°C 92% 17.3 mph SW27.8 kmh SW 23.0 mph37.0 kmh 29.52 in999.7 mb - 0.02 in0.5 mm 0.85 in21.6 mm
03:20 PM 46.2°F7.9°C 44.0°F6.7°C 92% 19.6 mph SW31.5 kmh SW 31.1 mph50.1 kmh 29.52 in999.7 mb - 0.03 in0.8 mm 0.83 in21.1 mm
03:00 PM 46.4°F8.0°C 43.9°F6.6°C 91% 20.7 mph SW33.3 kmh SW 25.3 mph40.7 kmh 29.53 in1000.0 mb - 0.06 in1.5 mm 0.77 in19.6 mm
02:50 PM 46.5°F8.1°C 44.0°F6.7°C 91% 13.8 mph SW22.2 kmh SW 18.4 mph29.6 kmh 29.53 in1000.0 mb - 0.06 in1.5 mm 0.72 in18.3 mm
02:40 PM 46.7°F8.2°C 43.9°F6.6°C 90% 12.7 mph SW20.4 kmh SW 16.1 mph25.9 kmh 29.53 in1000.0 mb - 0.06 in1.5 mm 0.66 in16.8 mm
02:30 PM 47.1°F8.4°C 44.0°F6.7°C 89% 10.4 mph WSW16.7 kmh WSW 12.7 mph20.4 kmh 29.52 in999.7 mb - 0.04 in1.0 mm 0.61 in15.5 mm
02:20 PM 47.3°F8.5°C 43.9°F6.6°C 88% 6.9 mph WSW11.1 kmh WSW 9.2 mph14.8 kmh 29.52 in999.7 mb - 0.02 in0.5 mm 0.57 in14.5 mm
02:10 PM 47.4°F8.6°C 43.7°F6.5°C 87% 6.9 mph WSW11.1 kmh WSW 10.4 mph16.7 kmh 29.52 in999.7 mb - 0.02 in0.5 mm 0.55 in14.0 mm
02:00 PM 47.7°F8.7°C 43.4°F6.3°C 85% 6.9 mph WSW11.1 kmh WSW 9.2 mph14.8 kmh 29.52 in999.7 mb - 0.02 in0.5 mm 0.53 in13.5 mm
01:50 PM 48.8°F9.3°C 43.9°F6.6°C 83% 12.7 mph SW20.4 kmh SW 16.1 mph25.9 kmh 29.52 in999.7 mb - 0.05 in1.3 mm 0.52 in13.2 mm
01:40 PM 50.8°F10.4°C 46.1°F7.8°C 84% 13.8 mph SW22.2 kmh SW 19.6 mph31.5 kmh 29.52 in999.7 mb - 0.00 in0.0 mm 0.47 in11.9 mm
01:30 PM 50.1°F10.1°C 45.8°F7.7°C 85% 13.8 mph SW22.2 kmh SW 15.0 mph24.1 kmh 29.52 in999.7 mb - 0.00 in0.0 mm 0.47 in11.9 mm
01:20 PM 49.7°F9.8°C 45.4°F7.4°C 85% 19.6 mph WSW31.5 kmh WSW 28.8 mph46.3 kmh 29.52 in999.7 mb - 0.00 in0.0 mm 0.47 in11.9 mm
01:10 PM 49.2°F9.6°C 45.2°F7.3°C 86% 28.8 mph SW46.3 kmh SW 36.8 mph59.2 kmh 29.50 in999.0 mb - 0.00 in0.0 mm 0.47 in11.9 mm
01:00 PM 49.5°F9.7°C 46.1°F7.8°C 88% 29.9 mph SW48.1 kmh SW 34.5 mph55.5 kmh 29.49 in998.6 mb - 0.00 in0.0 mm 0.47 in11.9 mm
12:50 PM 48.8°F9.3°C 45.1°F7.3°C 87% 20.7 mph SW33.3 kmh SW 26.5 mph42.6 kmh 29.50 in999.0 mb - 0.01 in0.3 mm 0.47 in11.9 mm
12:40 PM 48.8°F9.3°C 44.8°F7.1°C 86% 26.5 mph SW42.6 kmh SW 28.8 mph46.3 kmh 29.49 in998.6 mb - 0.02 in0.5 mm 0.47 in11.9 mm
12:30 PM 49.9°F9.9°C 45.6°F7.6°C 85% 27.6 mph SW44.4 kmh SW 34.5 mph55.5 kmh 29.49 in998.6 mb - 0.03 in0.8 mm 0.44 in11.2 mm
12:20 PM 51.3°F10.7°C 45.7°F7.6°C 81% 24.2 mph SW38.9 kmh SW 28.8 mph46.3 kmh 29.48 in998.3 mb - 0.06 in1.5 mm 0.43 in10.9 mm
12:10 PM 52.6°F11.4°C 45.6°F7.6°C 77% 29.9 mph SW48.1 kmh SW 34.5 mph55.5 kmh 29.46 in997.6 mb - 0.00 in0.0 mm 0.37 in9.4 mm
12:00 PM 52.0°F11.1°C 46.7°F8.2°C 82% 31.1 mph SW50.1 kmh SW 36.8 mph59.2 kmh 29.45 in997.3 mb - 0.00 in0.0 mm 0.37 in9.4 mm
11:50 AM 52.1°F11.2°C 47.4°F8.6°C 84% 31.1 mph SW50.1 kmh SW 40.3 mph64.9 kmh 29.45 in997.3 mb - 0.00 in0.0 mm 0.37 in9.4 mm
11:40 AM 52.7°F11.5°C 49.3°F9.6°C 88% 23.0 mph SW37.0 kmh SW 34.5 mph55.5 kmh 29.45 in997.3 mb - 0.00 in0.0 mm 0.37 in9.4 mm
11:30 AM 50.7°F10.4°C 47.9°F8.8°C 90% 18.4 mph SW29.6 kmh SW 29.9 mph48.1 kmh 29.46 in997.6 mb - 0.01 in0.3 mm 0.37 in9.4 mm
11:20 AM 49.2°F9.6°C 46.4°F8.0°C 90% 20.7 mph SW33.3 kmh SW 26.5 mph42.6 kmh 29.46 in997.6 mb - 0.02 in0.5 mm 0.37 in9.4 mm
11:10 AM 49.3°F9.6°C 46.2°F7.9°C 89% 20.7 mph SW33.3 kmh SW 25.3 mph40.7 kmh 29.46 in997.6 mb - 0.02 in0.5 mm 0.35 in8.9 mm
11:00 AM 49.5°F9.7°C 46.7°F8.2°C 90% 26.5 mph WSW42.6 kmh WSW 31.1 mph50.1 kmh 29.45 in997.3 mb - 0.01 in0.3 mm 0.33 in8.4 mm
10:50 AM 49.8°F9.9°C 47.2°F8.4°C 91% 25.3 mph SW40.7 kmh SW 28.8 mph46.3 kmh 29.45 in997.3 mb - 0.00 in0.0 mm 0.32 in8.1 mm
10:40 AM 49.6°F9.8°C 47.4°F8.6°C 92% 18.4 mph SW29.6 kmh SW 26.5 mph42.6 kmh 29.45 in997.3 mb - 0.00 in0.0 mm 0.32 in8.1 mm
10:30 AM 49.4°F9.7°C 47.2°F8.4°C 92% 23.0 mph SW37.0 kmh SW 25.3 mph40.7 kmh 29.44 in997.0 mb - 0.00 in0.0 mm 0.32 in8.1 mm
10:20 AM 49.3°F9.6°C 47.4°F8.6°C 93% 23.0 mph SW37.0 kmh SW 35.7 mph57.5 kmh 29.44 in997.0 mb - 0.00 in0.0 mm 0.32 in8.1 mm
10:10 AM 48.9°F9.4°C 47.0°F8.3°C 93% 21.9 mph SW35.2 kmh SW 26.5 mph42.6 kmh 29.44 in997.0 mb - 0.02 in0.5 mm 0.32 in8.1 mm
10:00 AM 49.1°F9.5°C 47.4°F8.6°C 94% 23.0 mph SW37.0 kmh SW 34.5 mph55.5 kmh 29.43 in996.6 mb - 0.02 in0.5 mm 0.31 in7.9 mm
09:50 AM 48.8°F9.3°C 47.2°F8.4°C 94% 25.3 mph SW40.7 kmh SW 27.6 mph44.4 kmh 29.43 in996.6 mb - 0.02 in0.5 mm 0.30 in7.6 mm
09:40 AM 48.5°F9.2°C 46.9°F8.3°C 94% 27.6 mph SW44.4 kmh SW 34.5 mph55.5 kmh 29.43 in996.6 mb - 0.01 in0.3 mm 0.28 in7.1 mm
09:30 AM 48.4°F9.1°C 46.8°F8.2°C 94% 29.9 mph SW48.1 kmh SW 32.2 mph51.8 kmh 29.42 in996.3 mb - 0.00 in0.0 mm 0.28 in7.1 mm
09:20 AM 48.4°F9.1°C 47.0°F8.3°C 95% 29.9 mph SW48.1 kmh SW 40.3 mph64.9 kmh 29.42 in996.3 mb - 0.00 in0.0 mm 0.28 in7.1 mm
09:00 AM 46.8°F8.2°C 45.5°F7.5°C 95% 23.0 mph SW37.0 kmh SW 31.1 mph50.1 kmh 29.42 in996.3 mb - 0.00 in0.0 mm 0.28 in7.1 mm
08:50 AM 43.0°F6.1°C 41.7°F5.4°C 95% 24.2 mph SW38.9 kmh SW 26.5 mph42.6 kmh 29.42 in996.3 mb - 0.00 in0.0 mm 0.28 in7.1 mm
08:40 AM 41.6°F5.3°C 40.0°F4.4°C 94% 12.7 mph SW20.4 kmh SW 20.7 mph33.3 kmh 29.42 in996.3 mb - 0.01 in0.3 mm 0.28 in7.1 mm
08:30 AM 41.3°F5.2°C 39.7°F4.3°C 94% 2.3 mph SSW3.7 kmh SSW 4.6 mph7.4 kmh 29.42 in996.3 mb - 0.00 in0.0 mm 0.27 in6.9 mm
08:20 AM 41.1°F5.1°C 39.5°F4.2°C 94% 2.3 mph SSW3.7 kmh SSW 5.8 mph9.3 kmh 29.42 in996.3 mb - 0.00 in0.0 mm 0.27 in6.9 mm
08:10 AM 40.8°F4.9°C 39.2°F4.0°C 94% 2.3 mph SE3.7 kmh SE 2.3 mph3.7 kmh 29.42 in996.3 mb - 0.01 in0.3 mm 0.27 in6.9 mm
08:00 AM 40.5°F4.7°C 38.9°F3.8°C 94% 1.1 mph W1.8 kmh W 4.6 mph7.4 kmh 29.42 in996.3 mb - 0.01 in0.3 mm 0.26 in6.6 mm
07:50 AM 40.6°F4.8°C 39.0°F3.9°C 94% 2.3 mph NE3.7 kmh NE 4.6 mph7.4 kmh 29.42 in996.3 mb - 0.02 in0.5 mm 0.25 in6.4 mm
07:40 AM 40.5°F4.7°C 38.9°F3.8°C 94% 3.5 mph NE5.6 kmh NE 6.9 mph11.1 kmh 29.42 in996.3 mb - 0.02 in0.5 mm 0.23 in5.8 mm
07:30 AM 40.3°F4.6°C 38.7°F3.7°C 94% 1.1 mph NE1.8 kmh NE 3.5 mph5.6 kmh 29.42 in996.3 mb - 0.01 in0.3 mm 0.21 in5.3 mm
07:20 AM 40.2°F4.6°C 38.6°F3.7°C 94% 4.6 mph NE7.4 kmh NE 5.8 mph9.3 kmh 29.42 in996.3 mb - 0.02 in0.5 mm 0.21 in5.3 mm
07:10 AM 40.2°F4.6°C 38.6°F3.7°C 94% 2.3 mph NE3.7 kmh NE 5.8 mph9.3 kmh 29.41 in995.9 mb - 0.01 in0.3 mm 0.18 in4.6 mm
06:50 AM 40.2°F4.6°C 38.6°F3.7°C 94% 2.3 mph ENE3.7 kmh ENE 1.1 mph1.8 kmh 29.41 in995.9 mb - 0.01 in0.3 mm 0.17 in4.3 mm
06:40 AM 40.1°F4.5°C 38.5°F3.6°C 94% 3.5 mph ENE5.6 kmh ENE 6.9 mph11.1 kmh 29.41 in995.9 mb - 0.00 in0.0 mm 0.17 in4.3 mm
06:30 AM 40.1°F4.5°C 38.5°F3.6°C 94% 5.8 mph NE9.3 kmh NE 6.9 mph11.1 kmh 29.42 in996.3 mb - 0.00 in0.0 mm 0.17 in4.3 mm
06:20 AM 40.1°F4.5°C 38.5°F3.6°C 94% 3.5 mph NE5.6 kmh NE 5.8 mph9.3 kmh 29.41 in995.9 mb - 0.00 in0.0 mm 0.17 in4.3 mm
06:10 AM 40.0°F4.4°C 38.4°F3.6°C 94% 5.8 mph NE9.3 kmh NE 8.1 mph13.0 kmh 29.42 in996.3 mb - 0.00 in0.0 mm 0.17 in4.3 mm
06:00 AM 40.2°F4.6°C 38.6°F3.7°C 94% 6.9 mph NE11.1 kmh NE 11.5 mph18.5 kmh 29.42 in996.3 mb - 0.01 in0.3 mm 0.17 in4.3 mm
05:50 AM 40.2°F4.6°C 38.6°F3.7°C 94% 2.3 mph E3.7 kmh E 3.5 mph5.6 kmh 29.42 in996.3 mb - 0.00 in0.0 mm 0.16 in4.1 mm
05:40 AM 40.4°F4.7°C 38.8°F3.8°C 94% 9.2 mph NNE14.8 kmh NNE 10.4 mph16.7 kmh 29.42 in996.3 mb - 0.00 in0.0 mm 0.16 in4.1 mm
05:30 AM 40.5°F4.7°C 38.9°F3.8°C 94% 5.8 mph ENE9.3 kmh ENE 8.1 mph13.0 kmh 29.43 in996.6 mb - 0.00 in0.0 mm 0.16 in4.1 mm
05:20 AM 40.5°F4.7°C 38.9°F3.8°C 94% 5.8 mph NE9.3 kmh NE 8.1 mph13.0 kmh 29.44 in997.0 mb - 0.00 in0.0 mm 0.16 in4.1 mm
05:10 AM 40.3°F4.6°C 38.7°F3.7°C 94% 4.6 mph ENE7.4 kmh ENE 5.8 mph9.3 kmh 29.45 in997.3 mb - 0.01 in0.3 mm 0.16 in4.1 mm
05:00 AM 40.5°F4.7°C 38.9°F3.8°C 94% Calm Calm 3.5 mph5.6 kmh 29.46 in997.6 mb - 0.00 in0.0 mm 0.15 in3.8 mm
04:50 AM 40.6°F4.8°C 38.7°F3.7°C 93% 2.3 mph S3.7 kmh S 4.6 mph7.4 kmh 29.47 in998.0 mb - 0.02 in0.5 mm 0.15 in3.8 mm
04:40 AM 40.7°F4.8°C 39.1°F3.9°C 94% 2.3 mph NNE3.7 kmh NNE 4.6 mph7.4 kmh 29.47 in998.0 mb - 0.01 in0.3 mm 0.13 in3.3 mm
04:30 AM 40.8°F4.9°C 39.2°F4.0°C 94% 3.5 mph ENE5.6 kmh ENE 4.6 mph7.4 kmh 29.47 in998.0 mb - 0.02 in0.5 mm 0.13 in3.3 mm
04:20 AM 40.8°F4.9°C 39.2°F4.0°C 94% 2.3 mph ENE3.7 kmh ENE 4.6 mph7.4 kmh 29.48 in998.3 mb - 0.00 in0.0 mm 0.11 in2.8 mm
04:10 AM 40.7°F4.8°C 39.1°F3.9°C 94% 2.3 mph ENE3.7 kmh ENE 3.5 mph5.6 kmh 29.48 in998.3 mb - 0.01 in0.3 mm 0.11 in2.8 mm
04:00 AM 40.6°F4.8°C 38.7°F3.7°C 93% 2.3 mph WSW3.7 kmh WSW 2.3 mph3.7 kmh 29.48 in998.3 mb - 0.01 in0.3 mm 0.10 in2.5 mm
03:50 AM 40.5°F4.7°C 38.6°F3.7°C 93% Calm Calm -- 29.49 in998.6 mb - 0.01 in0.3 mm 0.09 in2.3 mm
03:40 AM 40.5°F4.7°C 38.6°F3.7°C 93% 3.5 mph WSW5.6 kmh WSW 3.5 mph5.6 kmh 29.49 in998.6 mb - 0.01 in0.3 mm 0.09 in2.3 mm
03:30 AM 40.5°F4.7°C 38.6°F3.7°C 93% 3.5 mph WNW5.6 kmh WNW 4.6 mph7.4 kmh 29.50 in999.0 mb - 0.00 in0.0 mm 0.08 in2.0 mm
03:20 AM 40.6°F4.8°C 38.7°F3.7°C 93% 4.6 mph SW7.4 kmh SW 4.6 mph7.4 kmh 29.50 in999.0 mb - 0.00 in0.0 mm 0.08 in2.0 mm
03:10 AM 40.7°F4.8°C 38.8°F3.8°C 93% 4.6 mph WSW7.4 kmh WSW 8.1 mph13.0 kmh 29.51 in999.3 mb - 0.01 in0.3 mm 0.08 in2.0 mm
03:00 AM 40.8°F4.9°C 39.0°F3.9°C 93% 5.8 mph WSW9.3 kmh WSW 8.1 mph13.0 kmh 29.51 in999.3 mb - 0.02 in0.5 mm 0.07 in1.8 mm
02:50 AM 40.9°F4.9°C 39.0°F3.9°C 93% 2.3 mph SW3.7 kmh SW 4.6 mph7.4 kmh 29.52 in999.7 mb - 0.01 in0.3 mm 0.06 in1.5 mm
02:40 AM 41.0°F5.0°C 39.1°F3.9°C 93% 5.8 mph SW9.3 kmh SW 8.1 mph13.0 kmh 29.52 in999.7 mb - 0.01 in0.3 mm 0.05 in1.3 mm
02:30 AM 41.0°F5.0°C 39.1°F3.9°C 93% 2.3 mph SSW3.7 kmh SSW 2.3 mph3.7 kmh 29.53 in1000.0 mb - 0.02 in0.5 mm 0.04 in1.0 mm
02:20 AM 41.0°F5.0°C 39.1°F3.9°C 93% 8.1 mph SW13.0 kmh SW 10.4 mph16.7 kmh 29.54 in1000.3 mb - 0.02 in0.5 mm 0.03 in0.8 mm
02:10 AM 41.1°F5.1°C 39.2°F4.0°C 93% 6.9 mph SW11.1 kmh SW 11.5 mph18.5 kmh 29.54 in1000.3 mb - 0.01 in0.3 mm 0.02 in0.5 mm
01:50 AM 41.3°F5.2°C 39.4°F4.1°C 93% 6.9 mph SW11.1 kmh SW 9.2 mph14.8 kmh 29.55 in1000.7 mb - 0.01 in0.3 mm 0.02 in0.5 mm
01:40 AM 41.4°F5.2°C 39.5°F4.2°C 93% 8.1 mph SW13.0 kmh SW 11.5 mph18.5 kmh 29.55 in1000.7 mb - 0.00 in0.0 mm 0.01 in0.3 mm
01:30 AM 41.6°F5.3°C 39.7°F4.3°C 93% 10.4 mph SW16.7 kmh SW 13.8 mph22.2 kmh 29.55 in1000.7 mb - 0.01 in0.3 mm 0.01 in0.3 mm
01:20 AM 41.7°F5.4°C 39.9°F4.4°C 93% 10.4 mph SSW16.7 kmh SSW 15.0 mph24.1 kmh 29.55 in1000.7 mb - 0.00 in0.0 mm 0.00 in0.0 mm
01:10 AM 41.8°F5.4°C 39.9°F4.4°C 93% 10.4 mph SW16.7 kmh SW 12.7 mph20.4 kmh 29.55 in1000.7 mb - 0.00 in0.0 mm 0.00 in0.0 mm
01:00 AM 41.7°F5.4°C 39.8°F4.3°C 93% 11.5 mph SSW18.5 kmh SSW 16.1 mph25.9 kmh 29.56 in1001.0 mb - 0.00 in0.0 mm 0.00 in0.0 mm
12:50 AM 41.5°F5.3°C 39.6°F4.2°C 93% 3.5 mph SSW5.6 kmh SSW 9.2 mph14.8 kmh 29.56 in1001.0 mb - 0.00 in0.0 mm 0.00 in0.0 mm
12:40 AM 41.3°F5.2°C 39.4°F4.1°C 93% 4.6 mph S7.4 kmh S 10.4 mph16.7 kmh 29.56 in1001.0 mb - 0.00 in0.0 mm 0.00 in0.0 mm
12:30 AM 41.3°F5.2°C 39.4°F4.1°C 93% Calm Calm -- 29.57 in1001.4 mb - 0.00 in0.0 mm 0.00 in0.0 mm
12:20 AM 41.3°F5.2°C 39.4°F4.1°C 93% 5.8 mph SW9.3 kmh SW 8.1 mph13.0 kmh 29.57 in1001.4 mb - 0.00 in0.0 mm 0.00 in0.0 mm
12:10 AM 41.3°F5.2°C 39.4°F4.1°C 93% 3.5 mph SW5.6 kmh SW 4.6 mph7.4 kmh 29.57 in1001.4 mb - 0.00 in0.0 mm 0.00 in0.0 mm
12:00 AM 41.4°F5.2°C 39.3°F4.1°C 92% 4.6 mph SSW7.4 kmh SSW 5.8 mph9.3 kmh 29.57 in1001.4 mb - 0.00 in0.0 mm 0.00 in0.0 mm